createdAt,value
2018-12-11T00:00:58.914Z,11.20
2018-12-11T00:03:30.096Z,12.10
2018-12-11T00:05:59.351Z,7.83
2018-12-11T00:08:28.514Z,7.05
2018-12-11T00:10:58.824Z,6.10
2018-12-11T00:13:29.181Z,9.60
2018-12-11T00:15:58.340Z,5.72
2018-12-11T00:18:27.504Z,12.53
2018-12-11T00:20:56.631Z,11.95
2018-12-11T00:23:25.820Z,8.28
2018-12-11T00:25:54.960Z,9.23
2018-12-11T00:28:24.077Z,9.03
2018-12-11T00:30:53.286Z,6.87
2018-12-11T00:33:22.440Z,6.92
2018-12-11T00:35:51.610Z,6.00
2018-12-11T00:38:20.796Z,7.65
2018-12-11T00:40:50.027Z,8.48
2018-12-11T00:43:19.170Z,6.97
2018-12-11T00:45:49.302Z,10.68
2018-12-11T00:48:18.468Z,10.13
2018-12-11T00:50:47.628Z,8.53
2018-12-11T00:53:16.748Z,7.70
2018-12-11T00:55:45.912Z,7.00
2018-12-11T00:58:15.089Z,11.15
2018-12-11T01:00:44.240Z,7.15
2018-12-11T01:03:13.369Z,6.45
2018-12-11T01:05:42.504Z,10.53
2018-12-11T01:08:11.681Z,12.55
2018-12-11T01:10:40.832Z,10.90
2018-12-11T01:13:09.949Z,7.67
2018-12-11T01:15:39.087Z,8.33
2018-12-11T01:18:08.220Z,8.65
2018-12-11T01:20:37.388Z,7.80
2018-12-11T01:23:06.528Z,7.85
2018-12-11T01:25:35.639Z,9.50
2018-12-11T01:28:04.816Z,12.40
2018-12-11T01:30:33.960Z,10.85
2018-12-11T01:33:04.388Z,9.28
2018-12-11T01:35:33.575Z,11.73
2018-12-11T01:38:02.778Z,10.03
2018-12-11T01:40:31.992Z,17.37
2018-12-11T01:43:01.286Z,21.05
2018-12-11T01:45:30.438Z,8.85
2018-12-11T01:47:59.578Z,8.70
2018-12-11T01:50:28.748Z,13.95
2018-12-11T01:52:57.992Z,11.03
2018-12-11T01:55:27.149Z,12.13
2018-12-11T01:57:56.292Z,18.60
2018-12-11T02:00:25.434Z,9.85
2018-12-11T02:02:54.596Z,7.50
2018-12-11T02:05:23.762Z,5.92
2018-12-11T02:07:52.956Z,6.92
2018-12-11T02:10:22.217Z,8.28
2018-12-11T02:12:51.453Z,8.10
2018-12-11T02:15:20.571Z,12.30
2018-12-11T02:17:49.725Z,36.55
2018-12-11T02:20:33.548Z,9.45
2018-12-11T02:23:02.662Z,11.10
2018-12-11T02:25:31.807Z,8.53
2018-12-11T02:28:00.925Z,6.70
2018-12-11T02:30:30.030Z,7.60
2018-12-11T02:32:59.326Z,6.80
2018-12-11T02:35:28.475Z,9.18
2018-12-11T02:37:57.703Z,7.87
2018-12-11T02:40:26.880Z,8.73
2018-12-11T02:42:56.039Z,6.85
2018-12-11T02:45:28.229Z,20.23
2018-12-11T02:47:57.409Z,7.30
2018-12-11T02:50:26.536Z,7.87
2018-12-11T02:52:55.669Z,5.92
2018-12-11T02:55:24.820Z,9.75
2018-12-11T02:57:53.962Z,9.00
2018-12-11T03:00:23.104Z,8.28
2018-12-11T03:02:52.233Z,5.65
2018-12-11T03:05:21.362Z,5.83
2018-12-11T03:07:50.485Z,8.70
2018-12-11T03:10:19.672Z,10.13
2018-12-11T03:12:48.880Z,7.37
2018-12-11T03:15:17.999Z,6.90
2018-12-11T03:17:47.232Z,5.08
2018-12-11T03:20:16.345Z,6.83
2018-12-11T03:22:45.533Z,6.25
2018-12-11T03:25:14.691Z,7.60
2018-12-11T03:27:43.789Z,5.90
2018-12-11T03:30:12.957Z,7.00
2018-12-11T03:32:42.041Z,5.17
2018-12-11T03:35:11.218Z,10.65
2018-12-11T03:37:40.362Z,7.62
2018-12-11T03:40:09.610Z,5.30
2018-12-11T03:42:38.810Z,6.90
2018-12-11T03:45:08.193Z,11.12
2018-12-11T03:47:37.432Z,7.12
2018-12-11T03:50:07.157Z,6.85
2018-12-11T03:52:36.310Z,8.50
2018-12-11T03:55:05.945Z,8.60
2018-12-11T03:57:35.127Z,8.08
2018-12-11T04:00:05.372Z,8.23
2018-12-11T04:02:34.549Z,5.95
2018-12-11T04:05:03.929Z,7.85
2018-12-11T04:07:33.025Z,11.48
2018-12-11T04:10:02.193Z,10.25
2018-12-11T04:12:31.486Z,9.95
2018-12-11T04:15:00.953Z,14.40
2018-12-11T04:17:30.064Z,8.68
2018-12-11T04:19:59.185Z,13.25
2018-12-11T04:22:28.328Z,7.70
2018-12-11T04:24:57.443Z,9.48
2018-12-11T04:27:33.252Z,7.20
2018-12-11T04:30:02.842Z,12.30
2018-12-11T04:32:31.972Z,8.88
2018-12-11T04:35:01.089Z,10.82
2018-12-11T04:37:30.206Z,8.08
2018-12-11T04:39:59.361Z,17.20
2018-12-11T04:42:28.504Z,9.35
2018-12-11T04:44:57.675Z,8.18
2018-12-11T04:47:26.837Z,10.55
2018-12-11T04:49:56.062Z,9.33
2018-12-11T04:52:25.271Z,6.20
2018-12-11T04:54:54.444Z,8.80
2018-12-11T04:57:23.688Z,6.85
2018-12-11T04:59:52.824Z,7.70
2018-12-11T05:02:21.974Z,5.90
2018-12-11T05:04:51.120Z,7.50
2018-12-11T05:07:20.263Z,9.53
2018-12-11T05:09:49.388Z,6.35
2018-12-11T05:12:18.598Z,9.05
2018-12-11T05:14:47.895Z,12.25
2018-12-11T05:17:17.073Z,8.23
2018-12-11T05:19:46.174Z,9.75
2018-12-11T05:22:15.275Z,11.05
2018-12-11T05:24:44.396Z,10.32
2018-12-11T05:27:13.528Z,10.82
2018-12-11T05:29:42.656Z,8.05
2018-12-11T05:32:11.781Z,8.13
2018-12-11T05:34:40.924Z,24.30
2018-12-11T05:37:10.090Z,7.80
2018-12-11T05:39:39.283Z,11.28
2018-12-11T05:42:08.444Z,8.38
2018-12-11T05:44:37.604Z,10.38
2018-12-11T05:47:06.928Z,9.58
2018-12-11T05:49:36.069Z,8.50
2018-12-11T05:52:05.520Z,25.10
2018-12-11T05:54:34.616Z,7.50
2018-12-11T05:57:03.844Z,9.65
2018-12-11T05:59:32.951Z,10.68
2018-12-11T06:02:02.084Z,9.38
2018-12-11T06:04:31.225Z,13.95
2018-12-11T06:07:00.336Z,9.65
2018-12-11T06:09:29.553Z,8.53
2018-12-11T06:11:58.664Z,11.00
2018-12-11T06:14:27.813Z,12.07
2018-12-11T06:16:57.034Z,8.05
2018-12-11T06:19:26.169Z,13.62
2018-12-11T06:21:55.297Z,5.72
2018-12-11T06:24:24.484Z,9.60
2018-12-11T06:26:53.697Z,13.80
2018-12-11T06:29:22.824Z,8.13
2018-12-11T06:31:51.939Z,5.75
2018-12-11T06:34:21.110Z,9.25
2018-12-11T06:36:50.234Z,8.93
2018-12-11T06:39:19.372Z,5.53
2018-12-11T06:41:48.574Z,19.87
2018-12-11T06:44:17.733Z,8.15
2018-12-11T06:46:46.929Z,9.80
2018-12-11T06:49:17.065Z,10.95
2018-12-11T06:51:46.251Z,13.72
2018-12-11T06:54:15.497Z,9.93
2018-12-11T06:56:44.669Z,10.08
2018-12-11T06:59:13.851Z,6.87
2018-12-11T07:01:43.125Z,9.15
2018-12-11T07:04:12.281Z,11.78
2018-12-11T07:06:41.417Z,14.83
2018-12-11T07:09:10.554Z,8.73
2018-12-11T07:11:39.680Z,9.25
2018-12-11T07:14:08.828Z,9.98
2018-12-11T07:16:38.052Z,8.55
2018-12-11T07:19:07.128Z,9.35
2018-12-11T07:21:36.318Z,7.12
2018-12-11T07:24:05.484Z,8.28
2018-12-11T07:26:34.620Z,12.30
2018-12-11T07:29:03.754Z,11.85
2018-12-11T07:31:32.934Z,14.28
2018-12-11T07:34:02.108Z,7.67
2018-12-11T07:36:31.286Z,8.43
2018-12-11T07:39:00.431Z,7.78
2018-12-11T07:41:29.577Z,9.40
2018-12-11T07:43:58.736Z,15.93
2018-12-11T07:46:27.865Z,9.83
2018-12-11T07:48:57.241Z,8.75
2018-12-11T07:51:26.592Z,14.43
2018-12-11T07:53:55.762Z,8.00
2018-12-11T07:56:25.023Z,12.33
2018-12-11T07:58:54.168Z,8.60
2018-12-11T08:01:23.295Z,9.63
2018-12-11T08:03:52.428Z,11.85
2018-12-11T08:06:21.586Z,9.40
2018-12-11T08:08:50.774Z,8.95
2018-12-11T08:11:19.856Z,12.07
2018-12-11T08:13:49.059Z,8.90
2018-12-11T08:16:18.523Z,16.40
2018-12-11T08:18:47.617Z,11.38
2018-12-11T08:21:16.813Z,11.78
2018-12-11T08:23:45.991Z,12.78
2018-12-11T08:26:15.293Z,12.68
2018-12-11T08:28:44.459Z,8.85
2018-12-11T08:31:13.656Z,25.25
2018-12-11T08:33:42.901Z,12.43
2018-12-11T08:36:12.034Z,10.90
2018-12-11T08:38:43.218Z,18.25
2018-12-11T08:41:12.345Z,13.95
2018-12-11T08:43:41.509Z,13.38
2018-12-11T08:46:10.635Z,11.33
2018-12-11T08:48:39.835Z,11.95
2018-12-11T08:51:08.989Z,10.35
2018-12-11T08:53:38.199Z,10.90
2018-12-11T08:56:07.374Z,16.50
2018-12-11T08:58:36.641Z,23.50
2018-12-11T09:01:05.881Z,10.50
2018-12-11T09:03:35.072Z,29.30
2018-12-11T09:06:04.223Z,7.47
2018-12-11T09:08:33.436Z,10.08
2018-12-11T09:11:02.603Z,11.90
2018-12-11T09:13:31.748Z,7.67
2018-12-11T09:16:00.884Z,8.30
2018-12-11T09:18:30.328Z,18.60
2018-12-11T09:20:59.480Z,10.25
2018-12-11T09:23:28.638Z,8.78
2018-12-11T09:25:57.801Z,10.63
2018-12-11T09:28:28.064Z,10.38
2018-12-11T09:30:57.324Z,10.50
2018-12-11T09:33:26.578Z,15.30
2018-12-11T09:35:55.854Z,8.98
2018-12-11T09:38:25.084Z,7.87
2018-12-11T09:40:54.295Z,8.10
2018-12-11T09:43:23.417Z,6.22
2018-12-11T09:45:52.589Z,7.85
2018-12-11T09:48:21.762Z,11.75
2018-12-11T09:50:50.943Z,8.90
2018-12-11T09:53:20.091Z,10.98
2018-12-11T09:55:49.416Z,6.62
2018-12-11T09:58:18.629Z,8.28
2018-12-11T10:00:47.958Z,8.58
2018-12-11T10:03:17.108Z,9.75
2018-12-11T10:05:46.251Z,8.68
2018-12-11T10:08:15.408Z,8.48
2018-12-11T10:10:44.538Z,6.97
2018-12-11T10:13:13.716Z,13.00
2018-12-11T10:15:42.884Z,10.63
2018-12-11T10:18:12.314Z,13.88
2018-12-11T10:20:41.553Z,7.15
2018-12-11T10:23:11.250Z,7.62
2018-12-11T10:25:40.424Z,7.10
2018-12-11T10:28:09.583Z,9.35
2018-12-11T10:30:44.192Z,12.58
2018-12-11T10:33:13.356Z,7.17
2018-12-11T10:35:42.485Z,3.80
2018-12-11T10:38:11.673Z,7.85
2018-12-11T10:40:40.857Z,4.37
2018-12-11T10:43:10.169Z,8.75
2018-12-11T10:45:39.488Z,9.18
2018-12-11T10:48:08.661Z,6.35
2018-12-11T10:50:37.825Z,7.08
2018-12-11T10:53:07.064Z,7.12
2018-12-11T10:55:36.260Z,7.55
2018-12-11T10:58:05.481Z,11.75
2018-12-11T11:00:40.006Z,4.80
2018-12-11T11:03:09.242Z,5.20
2018-12-11T11:05:38.499Z,8.20
2018-12-11T11:08:07.709Z,5.83
2018-12-11T11:10:36.845Z,3.25
2018-12-11T11:13:06.004Z,6.50
2018-12-11T11:15:35.164Z,7.67
2018-12-11T11:18:04.600Z,5.08
2018-12-11T11:20:33.805Z,4.62
2018-12-11T11:23:02.884Z,8.18
2018-12-11T11:25:32.110Z,3.70
2018-12-11T11:28:02.093Z,3.83
2018-12-11T11:30:31.253Z,6.37
2018-12-11T11:33:00.396Z,4.67
2018-12-11T11:35:29.528Z,5.00
2018-12-11T11:37:58.688Z,8.03
2018-12-11T11:40:27.816Z,3.70
2018-12-11T11:42:56.980Z,4.28
2018-12-11T11:45:27.047Z,4.58
2018-12-11T11:47:56.306Z,6.40
2018-12-11T11:50:25.789Z,4.08
2018-12-11T11:52:55.021Z,54.73
2018-12-11T11:55:24.149Z,20.80
2018-12-11T11:57:53.336Z,5.22
2018-12-11T12:00:22.520Z,4.62
2018-12-11T12:02:51.718Z,8.83
2018-12-11T12:05:20.930Z,4.95
2018-12-11T12:07:50.125Z,14.55
2018-12-11T12:10:21.273Z,5.58
2018-12-11T12:12:50.392Z,5.28
2018-12-11T12:15:19.489Z,4.95
2018-12-11T12:17:48.682Z,6.17
2018-12-11T12:20:17.847Z,6.25
2018-12-11T12:22:46.987Z,11.85
2018-12-11T12:25:16.105Z,6.78
2018-12-11T12:27:45.241Z,5.60
2018-12-11T12:30:14.388Z,6.22
2018-12-11T12:32:43.617Z,6.47
2018-12-11T12:35:12.773Z,5.90
2018-12-11T12:37:41.902Z,11.50
2018-12-11T12:40:11.067Z,8.08
2018-12-11T12:42:40.213Z,4.97
2018-12-11T12:45:10.481Z,5.15
2018-12-11T12:47:39.661Z,7.75
2018-12-11T12:50:08.797Z,8.25
2018-12-11T12:52:37.921Z,7.45
2018-12-11T12:55:07.157Z,11.70
2018-12-11T12:57:36.312Z,6.78
2018-12-11T13:00:06.080Z,6.05
2018-12-11T13:02:35.289Z,8.73
2018-12-11T13:05:04.823Z,9.25
2018-12-11T13:07:34.095Z,6.95
2018-12-11T13:10:03.366Z,9.05
2018-12-11T13:12:32.824Z,5.15
2018-12-11T13:15:07.145Z,4.50
2018-12-11T13:17:33.140Z,6.85
2018-12-11T13:20:02.268Z,9.65
2018-12-11T13:22:31.368Z,4.37
2018-12-11T13:25:00.480Z,4.90
2018-12-11T13:27:29.612Z,7.00
2018-12-11T13:29:58.790Z,11.30
2018-12-11T13:32:27.933Z,6.00
2018-12-11T13:34:57.027Z,3.67
2018-12-11T13:37:26.265Z,4.40
2018-12-11T13:39:55.420Z,12.95
2018-12-11T13:42:24.538Z,6.92
2018-12-11T13:44:53.799Z,5.00
2018-12-11T13:47:22.931Z,5.22
2018-12-11T13:49:52.872Z,3.65
2018-12-11T13:52:22.021Z,6.40
2018-12-11T13:54:51.149Z,3.85
2018-12-11T13:57:20.315Z,4.78
2018-12-11T13:59:49.478Z,5.42
2018-12-11T14:02:18.616Z,3.52
2018-12-11T14:04:47.892Z,8.68
2018-12-11T14:07:17.044Z,8.33
2018-12-11T14:09:46.260Z,4.15
2018-12-11T14:12:15.370Z,6.20
2018-12-11T14:14:44.525Z,6.72
2018-12-11T14:17:13.688Z,6.17
2018-12-11T14:19:44.832Z,3.92
2018-12-11T14:22:13.993Z,5.90
2018-12-11T14:24:43.117Z,4.10
2018-12-11T14:27:12.270Z,5.85
2018-12-11T14:29:41.380Z,7.17
2018-12-11T14:32:10.514Z,6.40
2018-12-11T14:34:39.696Z,6.10
2018-12-11T14:37:08.819Z,6.58
2018-12-11T14:39:37.954Z,4.17
2018-12-11T14:42:07.100Z,6.45
2018-12-11T14:44:36.249Z,5.20
2018-12-11T14:47:05.466Z,6.10
2018-12-11T14:49:34.615Z,8.65
2018-12-11T14:52:04.006Z,5.45
2018-12-11T14:54:33.130Z,7.08
2018-12-11T14:57:02.272Z,15.25
2018-12-11T14:59:31.440Z,7.47
2018-12-11T15:02:00.592Z,8.35
2018-12-11T15:04:29.736Z,8.88
2018-12-11T15:06:59.099Z,12.73
2018-12-11T15:09:47.856Z,5.70
2018-12-11T15:12:17.044Z,7.78
2018-12-11T15:14:46.210Z,7.33
2018-12-11T15:17:15.408Z,6.70
2018-12-11T15:19:59.268Z,15.72
2018-12-11T15:22:28.426Z,9.33
2018-12-11T15:24:57.538Z,6.78
2018-12-11T15:27:26.669Z,10.60
2018-12-11T15:29:55.829Z,15.95
2018-12-11T15:32:24.876Z,22.45
2018-12-11T15:34:54.016Z,6.80
2018-12-11T15:37:23.414Z,9.53
2018-12-11T15:39:52.615Z,8.43
2018-12-11T15:42:21.844Z,10.38
2018-12-11T15:44:51.008Z,14.20
2018-12-11T15:47:20.180Z,7.72
2018-12-11T15:49:49.360Z,10.93
2018-12-11T15:52:18.550Z,9.78
2018-12-11T15:54:47.716Z,20.25
2018-12-11T15:57:16.851Z,7.78
2018-12-11T15:59:45.988Z,10.48
2018-12-11T16:02:15.151Z,10.80
2018-12-11T16:04:44.328Z,11.40
2018-12-11T16:07:13.532Z,9.65
2018-12-11T16:09:42.712Z,12.10
2018-12-11T16:12:11.934Z,9.28
2018-12-11T16:14:41.208Z,7.75
2018-12-11T16:17:10.287Z,8.33
2018-12-11T16:19:39.486Z,29.80
2018-12-11T16:22:08.632Z,11.48
2018-12-11T16:24:37.752Z,15.45
2018-12-11T16:27:06.892Z,11.93
2018-12-11T16:29:36.088Z,16.73
2018-12-11T16:32:05.236Z,17.17
2018-12-11T16:34:34.399Z,27.65
2018-12-11T16:37:04.664Z,13.38
2018-12-11T16:39:33.798Z,12.05
2018-12-11T16:42:02.940Z,13.93
2018-12-11T16:44:32.110Z,18.25
2018-12-11T16:47:01.190Z,12.55
2018-12-11T16:49:30.328Z,14.10
2018-12-11T16:51:59.523Z,16.00
2018-12-11T16:54:28.648Z,18.55
2018-12-11T16:56:57.814Z,15.85
2018-12-11T16:59:26.949Z,17.23
2018-12-11T17:01:56.125Z,21.93
2018-12-11T17:04:25.339Z,19.62
2018-12-11T17:06:54.471Z,24.65
2018-12-11T17:09:23.659Z,20.02
2018-12-11T17:11:52.889Z,19.32
2018-12-11T17:14:23.005Z,19.57
2018-12-11T17:16:52.283Z,16.97
2018-12-11T17:19:21.493Z,24.67
2018-12-11T17:21:50.805Z,21.60
2018-12-11T17:24:19.976Z,23.47
2018-12-11T17:26:49.104Z,20.45
2018-12-11T17:29:23.959Z,24.23
2018-12-11T17:31:49.443Z,25.92
2018-12-11T17:34:18.592Z,25.43
2018-12-11T17:36:47.714Z,20.25
2018-12-11T17:39:16.838Z,23.42
2018-12-11T17:41:45.999Z,24.15
2018-12-11T17:44:15.234Z,24.85
2018-12-11T17:46:45.362Z,27.10
2018-12-11T17:49:14.447Z,32.67
2018-12-11T17:51:43.619Z,33.15
2018-12-11T17:54:12.868Z,29.32
2018-12-11T17:56:42.313Z,22.58
2018-12-11T17:59:11.844Z,45.63
2018-12-11T18:01:42.026Z,22.50
2018-12-11T18:04:12.293Z,26.73
2018-12-11T18:06:41.516Z,29.37
2018-12-11T18:09:10.658Z,31.07
2018-12-11T18:11:39.897Z,57.10
2018-12-11T18:14:09.068Z,22.93
2018-12-11T18:16:39.338Z,29.92
2018-12-11T18:19:08.554Z,35.15
2018-12-11T18:21:37.717Z,38.17
2018-12-11T18:24:06.979Z,29.82
2018-12-11T18:26:36.136Z,28.87
2018-12-11T18:29:05.310Z,25.02
2018-12-11T18:31:34.414Z,35.75
2018-12-11T18:34:10.716Z,24.50
2018-12-11T18:36:34.734Z,28.52
2018-12-11T18:39:05.338Z,42.93
2018-12-11T18:41:35.618Z,38.95
2018-12-11T18:44:05.008Z,33.25
2018-12-11T18:46:34.162Z,31.82
2018-12-11T18:49:03.415Z,29.30
2018-12-11T18:51:32.592Z,33.10
2018-12-11T18:54:01.773Z,37.13
2018-12-11T18:56:30.874Z,33.33
2018-12-11T18:59:00.040Z,34.10
2018-12-11T19:01:29.199Z,37.83
2018-12-11T19:04:04.413Z,26.52
2018-12-11T19:06:33.700Z,30.97
2018-12-11T19:09:05.854Z,38.25
2018-12-11T19:11:36.174Z,34.95
2018-12-11T19:14:06.218Z,41.02
2018-12-11T19:16:35.594Z,35.40
2018-12-11T19:19:04.850Z,33.80
2018-12-11T19:21:34.097Z,33.15
2018-12-11T19:24:11.612Z,44.15
2018-12-11T19:26:40.788Z,43.42
2018-12-11T19:29:10.037Z,39.60
2018-12-11T19:31:41.539Z,54.03
2018-12-11T19:34:10.743Z,70.57
2018-12-11T19:36:39.949Z,48.28
2018-12-11T19:39:11.153Z,78.70
2018-12-11T19:41:40.342Z,54.30
2018-12-11T19:44:09.468Z,43.95
2018-12-11T19:46:38.574Z,40.00
2018-12-11T19:49:07.743Z,39.42
2018-12-11T19:51:36.902Z,46.30
2018-12-11T19:54:07.387Z,53.33
2018-12-11T19:56:36.617Z,39.60
2018-12-11T19:59:05.939Z,39.88
2018-12-11T20:01:35.127Z,36.85
2018-12-11T20:04:04.928Z,33.28
2018-12-11T20:06:34.263Z,32.93
2018-12-11T20:09:05.196Z,32.23
2018-12-11T20:11:35.497Z,31.05
2018-12-11T20:14:04.890Z,47.35
2018-12-11T20:16:35.107Z,41.68
2018-12-11T20:19:04.417Z,30.32
2018-12-11T20:21:33.621Z,30.85
2018-12-11T20:24:05.089Z,41.65
2018-12-11T20:26:39.239Z,41.33
2018-12-11T20:29:05.316Z,32.03
2018-12-11T20:31:34.499Z,33.50
2018-12-11T20:34:03.924Z,27.35
2018-12-11T20:36:33.085Z,25.17
2018-12-11T20:39:02.428Z,30.52
2018-12-11T20:41:33.008Z,29.55
2018-12-11T20:44:02.176Z,37.05
2018-12-11T20:46:31.387Z,34.18
2018-12-11T20:49:00.578Z,37.42
2018-12-11T20:51:29.684Z,41.77
2018-12-11T20:53:58.898Z,46.58
2018-12-11T20:56:28.045Z,45.78
2018-12-11T20:58:57.260Z,41.48
2018-12-11T21:01:26.350Z,36.33
2018-12-11T21:03:55.528Z,37.75
2018-12-11T21:06:24.789Z,41.37
2018-12-11T21:08:54.012Z,37.30
2018-12-11T21:11:23.164Z,35.13
2018-12-11T21:13:52.560Z,46.02
2018-12-11T21:16:21.687Z,35.38
2018-12-11T21:18:51.436Z,48.28
2018-12-11T21:21:20.688Z,43.15
2018-12-11T21:23:49.884Z,42.17
2018-12-11T21:26:19.112Z,41.48
2018-12-11T21:28:48.276Z,40.73
2018-12-11T21:31:17.412Z,44.55
2018-12-11T21:33:46.524Z,38.42
2018-12-11T21:36:16.680Z,31.65
2018-12-11T21:38:45.800Z,45.40
2018-12-11T21:41:14.926Z,30.10
2018-12-11T21:43:44.084Z,45.05
2018-12-11T21:46:13.252Z,43.60
2018-12-11T21:48:42.453Z,54.85
2018-12-11T21:51:11.586Z,56.98
2018-12-11T21:53:40.711Z,64.47
2018-12-11T21:56:09.872Z,52.13
2018-12-11T21:58:39.019Z,62.17
2018-12-11T22:01:08.149Z,53.73
2018-12-11T22:03:37.674Z,47.40
2018-12-11T22:06:07.097Z,69.53
2018-12-11T22:08:36.268Z,77.25
2018-12-11T22:11:05.383Z,65.65
2018-12-11T22:13:34.533Z,57.90
2018-12-11T22:16:03.790Z,55.15
2018-12-11T22:18:32.908Z,58.33
2018-12-11T22:21:02.117Z,53.45
2018-12-11T22:23:31.319Z,52.05
2018-12-11T22:26:01.414Z,84.52
2018-12-11T22:28:30.775Z,54.85
2018-12-11T22:30:59.974Z,50.85
2018-12-11T22:33:29.165Z,58.75
2018-12-11T22:35:58.631Z,66.02
2018-12-11T22:38:27.757Z,50.25
2018-12-11T22:40:56.881Z,70.15
2018-12-11T22:43:26.048Z,55.52
2018-12-11T22:45:55.293Z,76.80
2018-12-11T22:48:25.017Z,42.35
2018-12-11T22:50:54.274Z,44.38
2018-12-11T22:53:23.441Z,48.50
2018-12-11T22:55:53.706Z,64.75
2018-12-11T22:58:22.995Z,46.37
2018-12-11T23:00:52.164Z,44.85
2018-12-11T23:03:21.425Z,51.90
2018-12-11T23:05:50.616Z,58.87
2018-12-11T23:08:19.760Z,54.67
2018-12-11T23:10:48.880Z,48.58
2018-12-11T23:13:18.026Z,49.45
2018-12-11T23:15:47.245Z,49.00
2018-12-11T23:18:16.332Z,44.83
2018-12-11T23:20:45.456Z,45.10
2018-12-11T23:23:14.663Z,45.28
2018-12-11T23:25:43.816Z,43.28
2018-12-11T23:28:13.948Z,51.02
2018-12-11T23:30:43.152Z,45.48
2018-12-11T23:33:12.582Z,59.42
2018-12-11T23:35:41.776Z,50.33
2018-12-11T23:38:11.048Z,48.33
2018-12-11T23:40:40.200Z,50.40
2018-12-11T23:43:09.386Z,49.05
2018-12-11T23:45:38.536Z,46.63
2018-12-11T23:48:07.689Z,39.63
2018-12-11T23:50:36.846Z,45.17
2018-12-11T23:53:05.964Z,41.18
2018-12-11T23:55:35.065Z,40.25
2018-12-11T23:58:04.215Z,41.80
